Time;durP1;ratioP1;P1;durP2;ratioP2;P2;SDS_P1;SDS_P2;PMS_P1;PMS_P2;Temp;Humidity;BMP_temperature;BMP_pressure;BME280_temperature;BME280_humidity;BME280_pressure;Samples;Min_cycle;Max_cycle;Signal;HPM_P1;HPM_P2
2022/04/05 00:00:54;;;;;;;1.00;1.00;;;17.40;61.60;;;;;;5006674;28;43417;-77
2022/04/05 00:03:22;;;;;;;1.00;1.00;;;17.50;61.20;;;;;;4989077;28;43969;-76
2022/04/05 00:05:51;;;;;;;1.00;1.00;;;17.50;61.00;;;;;;5006476;28;44769;-76
2022/04/05 00:08:19;;;;;;;0.97;0.97;;;17.50;60.70;;;;;;5006703;28;43922;-76
2022/04/05 00:10:47;;;;;;;0.97;0.97;;;17.40;60.60;;;;;;5006722;28;43349;-76
2022/04/05 00:13:15;;;;;;;0.93;0.93;;;17.30;60.60;;;;;;4987667;28;43942;-76
2022/04/05 00:15:44;;;;;;;0.93;0.93;;;17.20;60.90;;;;;;5005938;28;45000;-76
2022/04/05 00:18:12;;;;;;;1.07;1.07;;;17.10;61.10;;;;;;4988450;28;44770;-76
2022/04/05 00:20:40;;;;;;;1.00;1.00;;;17.10;61.40;;;;;;5006615;28;43944;-77
2022/04/05 00:23:08;;;;;;;0.80;0.80;;;17.00;61.50;;;;;;5006904;28;43572;-76
2022/04/05 00:25:36;;;;;;;1.10;1.10;;;17.00;61.60;;;;;;4987992;28;45669;-76
2022/04/05 00:28:05;;;;;;;0.97;0.97;;;17.00;61.80;;;;;;5006390;28;44144;-78
2022/04/05 00:30:32;;;;;;;0.80;0.80;;;16.90;62.70;;;;;;5006276;28;43951;-78
2022/04/05 00:33:02;;;;;;;1.00;1.00;;;17.00;62.60;;;;;;5006918;28;44024;-78
2022/04/05 00:35:30;;;;;;;0.93;0.93;;;17.20;62.30;;;;;;5006204;28;43966;-78
2022/04/05 00:37:58;;;;;;;0.90;0.90;;;17.20;61.90;;;;;;5006482;28;43811;-77
2022/04/05 00:40:26;;;;;;;0.93;0.93;;;17.20;61.40;;;;;;5006368;28;44097;-76
2022/04/05 00:42:54;;;;;;;0.80;0.80;;;17.20;61.20;;;;;;5006728;28;43958;-76
2022/04/05 00:45:22;;;;;;;0.80;0.80;;;17.10;61.30;;;;;;5006246;28;44001;-77
2022/04/05 00:47:50;;;;;;;0.80;0.80;;;17.00;61.40;;;;;;4988035;28;46424;-76
2022/04/05 00:50:22;;;;;;;0.90;0.90;;;17.00;61.60;;;;;;5006237;28;43928;-76
2022/04/05 00:52:50;;;;;;;1.00;1.00;;;17.00;61.80;;;;;;4988560;28;43922;-76
2022/04/05 00:55:22;;;;;;;1.00;1.00;;;17.00;61.90;;;;;;4988082;28;45852;-76
2022/04/05 00:57:50;;;;;;;0.90;0.90;;;16.90;61.90;;;;;;5006013;28;43969;-78
2022/04/05 01:00:18;;;;;;;0.87;0.87;;;16.80;62.00;;;;;;5006371;28;43933;-74
2022/04/05 01:02:47;;;;;;;0.90;0.90;;;16.90;62.20;;;;;;4985153;28;43894;-73
2022/04/05 01:05:16;;;;;;;0.87;0.87;;;16.90;62.20;;;;;;5003543;28;44022;-74
2022/04/05 01:07:46;;;;;;;1.00;1.00;;;16.80;62.30;;;;;;5005636;28;43797;-74
2022/04/05 01:10:14;;;;;;;0.90;0.90;;;16.80;63.00;;;;;;4987732;28;43949;-74
2022/04/05 01:12:42;;;;;;;0.70;0.70;;;17.00;62.80;;;;;;5006036;28;44033;-74
2022/04/05 01:15:11;;;;;;;0.80;0.80;;;17.20;62.40;;;;;;4988121;28;45436;-74
2022/04/05 01:17:40;;;;;;;0.87;0.87;;;17.30;61.80;;;;;;5005382;28;43895;-74
2022/04/05 01:20:09;;;;;;;0.70;0.70;;;17.50;61.60;;;;;;5005757;28;43989;-75
2022/04/05 01:22:46;;;;;;;1.10;1.10;;;17.50;61.20;;;;;;4988230;28;43967;-74
2022/04/05 01:25:16;;;;;;;1.00;1.00;;;17.50;60.90;;;;;;5005141;28;43869;-75
2022/04/05 01:27:44;;;;;;;0.80;0.80;;;17.40;60.70;;;;;;5007735;28;43985;-75
2022/04/05 01:30:12;;;;;;;1.00;1.00;;;17.40;60.80;;;;;;5009210;28;43348;-75
2022/04/05 01:32:40;;;;;;;0.90;0.90;;;17.30;61.00;;;;;;5009575;28;43751;-75
2022/04/05 01:35:09;;;;;;;1.00;1.00;;;17.20;61.10;;;;;;5008309;28;43981;-75
2022/04/05 01:37:37;;;;;;;0.87;0.87;;;17.10;61.40;;;;;;5008778;28;44105;-75
2022/04/05 01:40:06;;;;;;;0.90;0.90;;;17.00;61.50;;;;;;5002582;28;44140;-75
2022/04/05 01:42:37;;;;;;;0.70;0.70;;;17.00;61.60;;;;;;5002655;28;43969;-75
2022/04/05 01:45:06;;;;;;;0.90;0.90;;;17.00;61.80;;;;;;5002510;28;45019;-75
2022/04/05 01:47:34;;;;;;;0.90;0.90;;;17.00;62.20;;;;;;5008568;28;44006;-75
2022/04/05 01:50:02;;;;;;;0.77;0.77;;;17.00;63.00;;;;;;5008278;28;43972;-75
2022/04/05 01:52:30;;;;;;;0.83;0.83;;;17.10;62.70;;;;;;4991034;28;43887;-75
2022/04/05 01:54:58;;;;;;;0.90;0.90;;;17.20;62.30;;;;;;5008684;28;43955;-75
2022/04/05 01:57:26;;;;;;;0.83;0.83;;;17.20;61.80;;;;;;5008749;28;43973;-75
2022/04/05 01:59:55;;;;;;;0.80;0.80;;;17.20;61.40;;;;;;5008321;28;43969;-75
2022/04/05 02:02:23;;;;;;;0.90;0.90;;;17.10;61.30;;;;;;5008863;28;44004;-75
2022/04/05 02:04:51;;;;;;;0.90;0.90;;;17.10;61.60;;;;;;5008168;28;44401;-76
2022/04/05 02:07:23;;;;;;;1.07;1.07;;;17.00;61.60;;;;;;4988044;28;44459;-75
2022/04/05 02:09:52;;;;;;;0.90;0.90;;;17.00;61.90;;;;;;5008357;28;43908;-75
2022/04/05 02:12:20;;;;;;;0.90;0.90;;;16.90;61.90;;;;;;4990713;28;43968;-75
2022/04/05 02:14:58;;;;;;;0.90;0.90;;;16.90;62.00;;;;;;4990311;28;45708;-75
2022/04/05 02:17:35;;;;;;;0.90;0.90;;;16.90;62.20;;;;;;4989908;28;43898;-75
2022/04/05 02:20:08;;;;;;;0.90;0.90;;;16.90;62.20;;;;;;4990133;28;43982;-75
2022/04/05 02:22:39;;;;;;;1.00;1.00;;;16.80;62.20;;;;;;4990374;28;44022;-76
2022/04/05 02:25:17;;;;;;;0.90;0.90;;;16.80;62.40;;;;;;4989998;28;44850;-73
2022/04/05 02:27:47;;;;;;;1.00;1.00;;;16.90;63.10;;;;;;4989967;28;43405;-75
2022/04/05 02:30:21;;;;;;;0.83;0.83;;;17.00;62.80;;;;;;4990186;28;43980;-76
2022/04/05 02:32:54;;;;;;;0.90;0.90;;;17.20;62.40;;;;;;4990280;28;44033;-74
2022/04/05 02:35:24;;;;;;;1.00;1.00;;;17.30;61.80;;;;;;4989696;28;46491;-74
2022/04/05 02:37:52;;;;;;;0.90;0.90;;;17.50;61.50;;;;;;5007420;28;44055;-75
2022/04/05 02:40:22;;;;;;;1.00;1.00;;;17.50;61.30;;;;;;4989968;28;44029;-74
2022/04/05 02:42:54;;;;;;;1.10;1.10;;;17.40;61.10;;;;;;5008325;28;43933;-74
2022/04/05 02:45:24;;;;;;;0.80;0.80;;;17.40;60.90;;;;;;4989666;28;43940;-74
2022/04/05 02:47:53;;;;;;;1.00;1.00;;;17.30;61.10;;;;;;4989568;28;44044;-74
2022/04/05 02:50:23;;;;;;;0.97;0.97;;;17.20;61.30;;;;;;4989952;28;43874;-74
2022/04/05 02:52:52;;;;;;;0.93;0.93;;;17.10;61.50;;;;;;5008204;28;44227;-74
2022/04/05 02:55:21;;;;;;;0.90;0.90;;;17.00;61.60;;;;;;4989412;28;43907;-76
2022/04/05 02:57:50;;;;;;;0.90;0.90;;;17.00;61.90;;;;;;4989679;28;43832;-74
2022/04/05 03:00:36;;;;;;;0.97;0.97;;;17.00;62.00;;;;;;4989488;28;43935;-75
2022/04/05 03:03:10;;;;;;;0.90;0.90;;;17.00;62.10;;;;;;4990036;28;43479;-75
2022/04/05 03:05:43;;;;;;;0.90;0.90;;;16.90;62.90;;;;;;4989201;28;44063;-75
2022/04/05 03:08:11;;;;;;;0.90;0.90;;;17.00;62.90;;;;;;4989423;28;44831;-74
2022/04/05 03:10:41;;;;;;;1.00;1.00;;;17.10;62.60;;;;;;4989405;28;44081;-75
2022/04/05 03:13:10;;;;;;;1.03;0.70;;;17.30;62.20;;;;;;4989918;28;43608;-74
2022/04/05 03:15:40;;;;;;;0.97;0.97;;;17.40;61.70;;;;;;4989099;28;45684;-75
2022/04/05 03:18:09;;;;;;;1.00;1.00;;;17.50;61.60;;;;;;4989170;28;44448;-74
2022/04/05 03:20:40;;;;;;;1.00;1.00;;;17.40;61.10;;;;;;4989239;28;43432;-74
2022/04/05 03:23:08;;;;;;;1.00;1.00;;;17.30;60.90;;;;;;5007551;28;43894;-76
2022/04/05 03:25:36;;;;;;;0.80;0.80;;;17.20;61.10;;;;;;5006581;28;43797;-75
2022/04/05 03:28:05;;;;;;;1.00;1.00;;;17.20;61.40;;;;;;4989453;28;44953;-74
2022/04/05 03:30:34;;;;;;;0.80;0.80;;;17.10;61.50;;;;;;4989087;28;44010;-74
2022/04/05 03:33:07;;;;;;;1.07;1.07;;;17.00;61.70;;;;;;4990355;28;44009;-83
2022/04/05 03:35:36;;;;;;;0.73;0.73;;;17.00;61.90;;;;;;4990080;28;45513;-74
2022/04/05 03:38:05;;;;;;;0.90;0.90;;;17.00;62.00;;;;;;4989269;28;44035;-81
2022/04/05 03:40:33;;;;;;;1.00;1.00;;;16.90;62.10;;;;;;4989320;28;43409;-75
2022/04/05 03:43:03;;;;;;;1.00;1.00;;;16.90;62.20;;;;;;4986394;28;44235;-75
2022/04/05 03:45:32;;;;;;;0.90;0.90;;;16.90;63.10;;;;;;5004340;28;44549;-76
2022/04/05 03:48:01;;;;;;;1.00;1.00;;;17.00;62.90;;;;;;4989108;28;43893;-75
2022/04/05 03:50:31;;;;;;;0.70;0.70;;;17.20;62.50;;;;;;4988269;28;43388;-75
2022/04/05 03:53:01;;;;;;;0.90;0.90;;;17.40;62.20;;;;;;4986247;28;43913;-75
2022/04/05 03:55:33;;;;;;;0.80;0.80;;;17.40;61.80;;;;;;4987559;28;45319;-76
2022/04/05 03:58:03;;;;;;;0.90;0.90;;;17.30;61.40;;;;;;4988588;28;43348;-75
2022/04/05 04:00:32;;;;;;;0.90;0.90;;;17.30;61.30;;;;;;4989687;28;44036;-76
2022/04/05 04:03:13;;;;;;;0.90;0.90;;;17.20;61.40;;;;;;4987641;28;43984;-76
2022/04/05 04:05:43;;;;;;;0.90;0.90;;;17.10;61.50;;;;;;4986299;28;44059;-74
2022/04/05 04:08:12;;;;;;;0.80;0.80;;;17.10;61.70;;;;;;4986792;28;43956;-75
2022/04/05 04:10:42;;;;;;;0.80;0.80;;;17.00;61.90;;;;;;4988757;28;43957;-77
2022/04/05 04:13:11;;;;;;;0.90;0.90;;;16.90;61.90;;;;;;4987709;28;43913;-77
2022/04/05 04:15:42;;;;;;;0.80;0.80;;;16.90;62.10;;;;;;4989184;28;44028;-77
2022/04/05 04:18:11;;;;;;;0.93;0.93;;;16.90;62.30;;;;;;4988787;28;44751;-81
2022/04/05 04:20:42;;;;;;;1.00;1.00;;;16.90;62.30;;;;;;4989736;28;43950;-76
2022/04/05 04:23:13;;;;;;;1.13;0.80;;;16.80;63.00;;;;;;4988936;28;44071;-79
2022/04/05 04:25:50;;;;;;;0.53;0.53;;;16.90;63.00;;;;;;4988344;28;45807;-75
2022/04/05 04:28:18;;;;;;;0.87;0.87;;;17.10;62.70;;;;;;4988351;28;44066;-76
2022/04/05 04:30:46;;;;;;;0.90;0.90;;;17.30;62.50;;;;;;4988267;28;43926;-76
2022/04/05 04:33:14;;;;;;;0.77;0.77;;;17.40;61.90;;;;;;5006444;28;43524;-76
2022/04/05 04:35:44;;;;;;;0.90;0.90;;;17.40;61.70;;;;;;5006057;28;44040;-76
2022/04/05 04:38:12;;;;;;;0.67;0.67;;;17.40;61.40;;;;;;4988037;28;44658;-76
2022/04/05 04:40:41;;;;;;;0.67;0.67;;;17.30;61.20;;;;;;4988302;28;43995;-75
2022/04/05 04:43:09;;;;;;;0.87;0.87;;;17.20;61.20;;;;;;4989202;28;43936;-76
2022/04/05 04:45:37;;;;;;;0.80;0.80;;;17.10;61.40;;;;;;5005952;28;44161;-76
2022/04/05 04:48:05;;;;;;;0.90;0.90;;;17.10;61.60;;;;;;5006113;28;43949;-76
2022/04/05 04:50:33;;;;;;;1.10;0.90;;;17.00;61.80;;;;;;5005897;28;44037;-77
2022/04/05 04:53:03;;;;;;;0.90;0.90;;;17.00;61.90;;;;;;5006480;28;43994;-76
2022/04/05 04:55:32;;;;;;;0.70;0.70;;;16.90;62.00;;;;;;5006199;28;43938;-75
2022/04/05 04:58:20;;;;;;;0.80;0.80;;;16.90;62.80;;;;;;4987996;28;44726;-75
2022/04/05 05:00:48;;;;;;;0.97;0.97;;;16.90;62.20;;;;;;5006877;28;43345;-75
2022/04/05 05:03:18;;;;;;;1.10;0.80;;;16.90;63.10;;;;;;4991501;28;43958;-75
2022/04/05 05:05:47;;;;;;;0.90;0.90;;;17.00;63.10;;;;;;5009030;28;43838;-76
2022/04/05 05:08:16;;;;;;;0.90;0.90;;;17.10;62.70;;;;;;4990497;28;45788;-76
2022/04/05 05:10:44;;;;;;;1.07;1.07;;;17.20;62.30;;;;;;4991118;28;43970;-75
2022/04/05 05:13:12;;;;;;;0.80;0.80;;;17.20;61.90;;;;;;5009633;28;43993;-77
2022/04/05 05:15:40;;;;;;;0.80;0.80;;;17.20;61.70;;;;;;5009070;28;44897;-75
2022/04/05 05:18:08;;;;;;;0.90;0.90;;;17.10;61.60;;;;;;5009071;28;44106;-76
2022/04/05 05:20:36;;;;;;;0.77;0.77;;;17.00;61.70;;;;;;5009001;28;43990;-77
2022/04/05 05:23:04;;;;;;;0.80;0.80;;;17.00;61.90;;;;;;4991307;28;43553;-77
2022/04/05 05:25:34;;;;;;;0.90;0.90;;;16.90;62.10;;;;;;4990709;28;45702;-76
2022/04/05 05:28:02;;;;;;;0.73;0.73;;;16.90;62.20;;;;;;4991046;28;45889;-78
2022/04/05 05:30:29;;;;;;;0.70;0.70;;;16.90;62.30;;;;;;5009261;28;43911;-76
2022/04/05 05:32:58;;;;;;;0.70;0.70;;;16.80;62.30;;;;;;5008489;28;43945;-75
2022/04/05 05:35:26;;;;;;;0.80;0.80;;;16.80;62.40;;;;;;5008894;28;44975;-77
2022/04/05 05:37:53;;;;;;;0.90;0.90;;;16.80;62.40;;;;;;4991228;28;44859;-76
2022/04/05 05:40:21;;;;;;;0.80;0.80;;;16.80;62.50;;;;;;5008919;28;43996;-76
2022/04/05 05:42:52;;;;;;;0.80;0.80;;;16.80;63.20;;;;;;4991266;28;43986;-76
2022/04/05 05:45:20;;;;;;;0.80;0.80;;;17.00;63.10;;;;;;5008844;28;44835;-76
2022/04/05 05:47:48;;;;;;;0.70;0.70;;;17.10;62.50;;;;;;5008706;28;43442;-76
2022/04/05 05:50:16;;;;;;;0.80;0.80;;;17.30;62.20;;;;;;5008989;28;44009;-76
2022/04/05 05:52:44;;;;;;;0.70;0.70;;;17.40;61.70;;;;;;5009166;28;43939;-76
2022/04/05 05:55:13;;;;;;;0.80;0.80;;;17.50;61.40;;;;;;4990325;28;45458;-76
2022/04/05 05:57:41;;;;;;;0.70;0.70;;;17.50;61.30;;;;;;4990734;28;44782;-76
2022/04/05 06:00:16;;;;;;;0.77;0.77;;;17.50;61.20;;;;;;5008744;28;44019;-77
2022/04/05 06:02:44;;;;;;;0.60;0.60;;;17.40;61.10;;;;;;4990986;28;44014;-75
2022/04/05 06:05:13;;;;;;;0.80;0.80;;;17.30;61.10;;;;;;4990346;28;45981;-76
2022/04/05 06:07:42;;;;;;;0.83;0.83;;;17.20;61.40;;;;;;4990395;28;43987;-77
2022/04/05 06:10:11;;;;;;;0.70;0.70;;;17.10;61.60;;;;;;4990242;28;43977;-75
2022/04/05 06:12:39;;;;;;;0.60;0.60;;;17.10;61.80;;;;;;5008111;28;43954;-78
2022/04/05 06:15:09;;;;;;;0.90;0.90;;;17.00;61.90;;;;;;5008482;28;43966;-76
2022/04/05 06:17:39;;;;;;;0.67;0.67;;;17.00;62.00;;;;;;5008189;28;44107;-77
2022/04/05 06:20:08;;;;;;;0.70;0.70;;;17.00;62.20;;;;;;5007964;28;43902;-76
2022/04/05 06:22:43;;;;;;;0.70;0.70;;;17.00;63.20;;;;;;4990600;28;43904;-76
2022/04/05 06:25:11;;;;;;;0.80;0.80;;;17.10;63.00;;;;;;5007608;28;45077;-78
2022/04/05 06:27:39;;;;;;;0.80;0.80;;;17.20;62.50;;;;;;5008150;28;44028;-78
2022/04/05 06:30:08;;;;;;;0.70;0.70;;;17.30;62.10;;;;;;5008253;28;44004;-76
2022/04/05 06:32:38;;;;;;;0.70;0.70;;;17.20;61.90;;;;;;4990630;28;43939;-76
2022/04/05 06:35:08;;;;;;;0.87;0.87;;;17.20;61.60;;;;;;4989876;28;45830;-76
2022/04/05 06:37:38;;;;;;;0.73;0.73;;;17.10;61.70;;;;;;5001366;28;43991;-76
2022/04/05 06:40:07;;;;;;;0.83;0.83;;;17.00;61.90;;;;;;4990021;28;43977;-76
2022/04/05 06:42:41;;;;;;;0.80;0.80;;;17.00;62.10;;;;;;5002018;28;44032;-76
2022/04/05 06:45:13;;;;;;;0.90;0.90;;;17.00;62.30;;;;;;5002365;28;43635;-76
2022/04/05 06:47:42;;;;;;;0.70;0.70;;;17.00;62.40;;;;;;4989638;28;44812;-76
2022/04/05 06:50:11;;;;;;;0.70;0.70;;;16.90;62.40;;;;;;5007819;28;43763;-76
2022/04/05 06:52:40;;;;;;;0.80;0.80;;;16.90;62.50;;;;;;5008280;28;43937;-76
2022/04/05 06:55:09;;;;;;;0.70;0.70;;;16.90;62.50;;;;;;5007650;28;43966;-76
2022/04/05 06:57:38;;;;;;;0.70;0.70;;;16.80;62.50;;;;;;5007438;28;43912;-76
2022/04/05 07:00:06;;;;;;;0.80;0.80;;;16.90;63.30;;;;;;5007673;28;43966;-76
2022/04/05 07:02:34;;;;;;;0.60;0.60;;;17.00;63.20;;;;;;5007795;28;44000;-76
2022/04/05 07:05:04;;;;;;;0.80;0.80;;;17.10;62.70;;;;;;5007800;28;44018;-77
2022/04/05 07:07:32;;;;;;;0.77;0.77;;;17.30;62.20;;;;;;4989884;28;44697;-75
2022/04/05 07:10:00;;;;;;;0.70;0.70;;;17.50;61.90;;;;;;5007866;28;44053;-75
2022/04/05 07:12:28;;;;;;;0.80;0.80;;;17.50;61.50;;;;;;4989344;28;44061;-75
2022/04/05 07:14:56;;;;;;;0.70;0.70;;;17.50;61.30;;;;;;5007426;28;43970;-77
2022/04/05 07:17:25;;;;;;;0.90;0.90;;;17.40;61.30;;;;;;4989325;28;43894;-76
2022/04/05 07:20:15;;;;;;;0.70;0.70;;;17.30;61.20;;;;;;5007309;28;44031;-76
2022/04/05 07:22:47;;;;;;;0.70;0.70;;;17.20;61.40;;;;;;4989512;28;43922;-76
2022/04/05 07:25:15;;;;;;;0.83;0.83;;;17.10;61.60;;;;;;5005722;28;44960;-78
2022/04/05 07:27:44;;;;;;;0.70;0.70;;;17.10;61.80;;;;;;5007033;28;43815;-75
2022/04/05 07:30:13;;;;;;;0.70;0.70;;;17.00;61.90;;;;;;5007578;28;43365;-76
2022/04/05 07:32:42;;;;;;;0.83;0.83;;;17.00;62.10;;;;;;5001668;28;44029;-76
2022/04/05 07:35:12;;;;;;;0.93;0.93;;;17.00;62.20;;;;;;5000612;28;44053;-75
2022/04/05 07:37:41;;;;;;;0.67;0.67;;;17.00;62.80;;;;;;5000991;28;44037;-75
2022/04/05 07:40:10;;;;;;;0.80;0.80;;;17.00;63.10;;;;;;4986177;28;43901;-77
2022/04/05 07:42:39;;;;;;;0.73;0.73;;;17.10;62.80;;;;;;4989348;28;44234;-77
2022/04/05 07:45:09;;;;;;;0.80;0.80;;;17.20;62.40;;;;;;5006844;28;44008;-77
2022/04/05 07:47:38;;;;;;;0.70;0.70;;;17.30;61.80;;;;;;5006828;28;44023;-77
2022/04/05 07:50:06;;;;;;;0.80;0.80;;;17.20;61.50;;;;;;4988777;28;43461;-77
2022/04/05 07:52:34;;;;;;;0.80;0.80;;;17.20;61.50;;;;;;5007358;28;43950;-76
2022/04/05 07:55:04;;;;;;;0.80;0.80;;;17.10;61.70;;;;;;5007334;28;44042;-76
2022/04/05 07:57:34;;;;;;;0.90;0.90;;;17.00;61.80;;;;;;5006779;28;44144;-77
2022/04/05 08:00:03;;;;;;;0.60;0.60;;;17.00;61.90;;;;;;5007072;28;43745;-76
2022/04/05 08:02:39;;;;;;;0.77;0.77;;;17.00;62.10;;;;;;5004169;28;43997;-78
2022/04/05 08:05:14;;;;;;;0.70;0.70;;;16.90;62.20;;;;;;4988108;28;45498;-77
2022/04/05 08:07:43;;;;;;;0.90;0.90;;;16.90;62.20;;;;;;5006367;28;43969;-77
2022/04/05 08:10:13;;;;;;;0.90;0.90;;;16.90;62.30;;;;;;5006455;28;43974;-75
2022/04/05 08:12:42;;;;;;;0.80;0.80;;;16.90;62.50;;;;;;5007039;28;43949;-76
2022/04/05 08:15:11;;;;;;;0.80;0.80;;;16.90;62.40;;;;;;5006429;28;43893;-76
2022/04/05 08:17:39;;;;;;;0.60;0.60;;;16.90;63.20;;;;;;5006491;28;43949;-76
2022/04/05 08:20:08;;;;;;;0.80;0.80;;;17.00;63.10;;;;;;4988566;28;43953;-76
2022/04/05 08:22:36;;;;;;;0.70;0.70;;;17.20;62.60;;;;;;5006893;28;43922;-75
2022/04/05 08:25:04;;;;;;;0.80;0.80;;;17.30;62.10;;;;;;5005576;28;43986;-76
2022/04/05 08:27:34;;;;;;;0.80;0.80;;;17.50;61.90;;;;;;4988595;28;44083;-77
2022/04/05 08:30:05;;;;;;;0.90;0.90;;;17.50;61.50;;;;;;4988563;28;44041;-76
2022/04/05 08:32:36;;;;;;;0.70;0.70;;;17.50;61.20;;;;;;5007475;28;44047;-77
2022/04/05 08:35:05;;;;;;;0.70;0.70;;;17.40;61.00;;;;;;5006130;28;43924;-75
2022/04/05 08:37:33;;;;;;;0.87;0.87;;;17.30;61.10;;;;;;5010175;28;43433;-76
2022/04/05 08:40:06;;;;;;;0.80;0.80;;;17.20;61.30;;;;;;4991974;28;43944;-76
2022/04/05 08:42:35;;;;;;;0.80;0.80;;;17.10;61.50;;;;;;5010298;28;43906;-76
2022/04/05 08:45:04;;;;;;;0.87;0.87;;;17.10;61.70;;;;;;5010285;28;43838;-77
2022/04/05 08:47:32;;;;;;;0.80;0.80;;;17.00;61.80;;;;;;5009818;28;43986;-76
2022/04/05 08:50:00;;;;;;;0.90;0.90;;;17.00;62.00;;;;;;4992276;28;43792;-75
2022/04/05 08:52:28;;;;;;;0.93;0.93;;;17.00;62.10;;;;;;5010106;28;43969;-75
2022/04/05 08:54:56;;;;;;;0.80;0.80;;;17.00;63.00;;;;;;5009468;28;44030;-77
2022/04/05 08:57:24;;;;;;;0.80;0.80;;;17.00;63.10;;;;;;5009591;28;43993;-75
2022/04/05 08:59:53;;;;;;;0.80;0.80;;;17.10;62.70;;;;;;5009465;28;43903;-76
2022/04/05 09:02:26;;;;;;;0.80;0.80;;;17.20;62.20;;;;;;5009915;28;43325;-76
2022/04/05 09:04:54;;;;;;;0.80;0.80;;;17.20;61.80;;;;;;4991288;28;45726;-78
2022/04/05 09:07:23;;;;;;;0.80;0.80;;;17.20;61.90;;;;;;4991456;28;44744;-76
2022/04/05 09:10:08;;;;;;;0.80;0.80;;;17.10;61.70;;;;;;4991341;28;43888;-76
2022/04/05 09:12:41;;;;;;;0.80;0.80;;;17.10;61.80;;;;;;4991746;28;43805;-76
2022/04/05 09:15:12;;;;;;;0.77;0.77;;;17.00;61.90;;;;;;5009294;28;43931;-76
2022/04/05 09:17:40;;;;;;;0.87;0.87;;;16.90;62.10;;;;;;5009229;28;44026;-77
2022/04/05 09:20:09;;;;;;;0.80;0.80;;;16.90;62.30;;;;;;4991245;28;44086;-77
2022/04/05 09:22:37;;;;;;;0.80;0.80;;;16.90;62.30;;;;;;5009386;28;44014;-76
2022/04/05 09:25:06;;;;;;;0.60;0.60;;;16.80;62.30;;;;;;5008418;28;43980;-75
2022/04/05 09:27:47;;;;;;;0.70;0.70;;;16.80;63.10;;;;;;4991712;28;43965;-76
2022/04/05 09:30:17;;;;;;;0.73;0.73;;;16.80;62.40;;;;;;5003607;28;44054;-77
2022/04/05 09:32:48;;;;;;;0.63;0.63;;;16.80;63.10;;;;;;5009513;28;43775;-76
2022/04/05 09:35:16;;;;;;;0.90;0.90;;;16.90;63.20;;;;;;4990854;28;45519;-76
2022/04/05 09:37:44;;;;;;;0.80;0.80;;;17.10;62.90;;;;;;5009060;28;43392;-77
2022/04/05 09:40:24;;;;;;;0.80;0.80;;;17.20;62.40;;;;;;5008978;28;43441;-77
2022/04/05 09:43:07;;;;;;;0.80;0.80;;;17.40;62.00;;;;;;4991340;28;44033;-77
2022/04/05 09:45:47;;;;;;;0.80;0.80;;;17.50;61.70;;;;;;5009490;28;44014;-75
2022/04/05 09:48:16;;;;;;;0.80;0.80;;;17.50;61.40;;;;;;5002964;28;43353;-81
2022/04/05 09:51:02;;;;;;;0.70;0.70;;;17.40;61.10;;;;;;5002588;28;43998;-74
2022/04/05 09:53:34;;;;;;;0.90;0.90;;;17.30;61.00;;;;;;5005283;28;43918;-77
2022/04/05 09:56:02;;;;;;;0.90;0.90;;;17.20;61.30;;;;;;4990345;28;45697;-76
2022/04/05 09:58:31;;;;;;;0.70;0.70;;;17.10;61.50;;;;;;5008789;28;44087;-77
2022/04/05 10:01:06;;;;;;;0.67;0.67;;;17.10;61.70;;;;;;4990999;28;44007;-76
2022/04/05 10:03:35;;;;;;;0.80;0.80;;;17.00;61.90;;;;;;4990866;28;44262;-75
2022/04/05 10:06:03;;;;;;;0.60;0.60;;;17.00;62.10;;;;;;5008677;28;44219;-75
2022/04/05 10:08:32;;;;;;;0.77;0.77;;;17.00;62.20;;;;;;5008668;28;43975;-78
2022/04/05 10:11:00;;;;;;;0.80;0.80;;;16.90;62.80;;;;;;5008538;28;43820;-76
2022/04/05 10:13:29;;;;;;;0.60;0.60;;;17.00;63.20;;;;;;4990910;28;43899;-76
2022/04/05 10:15:57;;;;;;;0.70;0.70;;;17.10;63.00;;;;;;5007965;28;44774;-75
2022/04/05 10:18:30;;;;;;;0.50;0.50;;;17.20;62.50;;;;;;4990409;28;44380;-76
2022/04/05 10:20:58;;;;;;;0.63;0.63;;;17.20;62.10;;;;;;4990030;28;43993;-76
2022/04/05 10:23:26;;;;;;;0.77;0.77;;;17.20;61.90;;;;;;5008764;28;43962;-77
2022/04/05 10:25:54;;;;;;;0.50;0.50;;;17.10;61.90;;;;;;5007409;28;43929;-77
2022/04/05 10:28:25;;;;;;;0.70;0.70;;;17.00;61.90;;;;;;5008091;28;44096;-77
2022/04/05 10:30:58;;;;;;;0.70;0.70;;;17.00;62.10;;;;;;4990044;28;43985;-77
2022/04/05 10:33:29;;;;;;;0.80;0.80;;;16.90;62.20;;;;;;5008529;28;43938;-77
2022/04/05 10:35:59;;;;;;;0.60;0.60;;;16.90;62.40;;;;;;5007808;28;44009;-77
2022/04/05 10:38:29;;;;;;;0.80;0.80;;;16.90;62.40;;;;;;5007986;28;43953;-77
2022/04/05 10:41:17;;;;;;;0.73;0.73;;;16.80;62.40;;;;;;5007929;28;43937;-77
2022/04/05 10:43:46;;;;;;;0.87;0.87;;;16.80;62.50;;;;;;5008271;28;43981;-77
2022/04/05 10:46:14;;;;;;;0.70;0.70;;;16.80;62.60;;;;;;4989669;28;45530;-77
2022/04/05 10:48:59;;;;;;;0.80;0.80;;;16.80;62.90;;;;;;5007766;28;44012;-77
2022/04/05 10:51:32;;;;;;;0.67;0.67;;;16.90;63.40;;;;;;4989881;28;44055;-75
2022/04/05 10:54:20;;;;;;;0.80;0.80;;;17.00;63.20;;;;;;5008336;28;44056;-76
2022/04/05 10:57:16;;;;;;;0.90;0.90;;;17.20;62.70;;;;;;4989597;28;47209;-76
2022/04/05 10:59:48;;;;;;;0.90;0.90;;;17.40;62.10;;;;;;5007502;28;44010;-76
2022/04/05 11:02:36;;;;;;;0.70;0.70;;;17.50;61.80;;;;;;5007086;28;44005;-75
2022/04/05 11:05:38;;;;;;;0.80;0.80;;;17.40;61.50;;;;;;5007452;28;44025;-75
2022/04/05 11:08:13;;;;;;;0.70;0.70;;;17.30;61.20;;;;;;5002883;28;44088;-76
2022/04/05 11:10:46;;;;;;;0.80;0.80;;;17.20;61.40;;;;;;5007369;28;43957;-76
2022/04/05 11:13:19;;;;;;;0.83;0.83;;;17.10;61.60;;;;;;4989653;28;43895;-77
2022/04/05 11:15:48;;;;;;;0.80;0.80;;;17.00;61.90;;;;;;4989686;28;43948;-77
2022/04/05 11:18:18;;;;;;;0.70;0.70;;;17.00;62.20;;;;;;4989294;28;44387;-76
2022/04/05 11:20:48;;;;;;;0.77;0.77;;;17.00;62.30;;;;;;4989320;28;45160;-76
2022/04/05 11:23:17;;;;;;;0.80;0.80;;;16.90;62.40;;;;;;4989186;28;43989;-76
2022/04/05 11:25:46;;;;;;;0.90;0.90;;;16.90;62.50;;;;;;4988770;28;44008;-75
2022/04/05 11:28:15;;;;;;;0.87;0.87;;;16.90;62.90;;;;;;5006536;28;43936;-76
2022/04/05 11:30:51;;;;;;;0.87;0.87;;;16.90;63.40;;;;;;4988903;28;44455;-78
2022/04/05 11:33:45;;;;;;;0.80;0.80;;;17.00;63.10;;;;;;5006655;28;44050;-75
2022/04/05 11:36:15;;;;;;;0.93;0.93;;;17.20;62.70;;;;;;5006836;28;44092;-76
2022/04/05 11:38:44;;;;;;;0.90;0.90;;;17.20;62.30;;;;;;5006426;28;44668;-77
2022/04/05 11:41:13;;;;;;;0.70;0.70;;;17.20;62.00;;;;;;5006456;28;44047;-76
2022/04/05 11:43:42;;;;;;;1.17;0.90;;;17.10;62.00;;;;;;4988446;28;43365;-76
2022/04/05 11:46:13;;;;;;;0.77;0.77;;;17.00;62.10;;;;;;5006925;28;43545;-75
2022/04/05 11:48:49;;;;;;;0.97;0.97;;;17.00;62.30;;;;;;5006389;28;43993;-76
2022/04/05 11:51:19;;;;;;;1.00;1.00;;;16.90;62.40;;;;;;4988263;28;44465;-77
2022/04/05 11:53:47;;;;;;;1.10;1.10;;;16.90;62.50;;;;;;5006193;28;43957;-78
2022/04/05 11:56:17;;;;;;;1.97;1.43;;;16.80;62.60;;;;;;4988747;28;43990;-76
2022/04/05 11:58:47;;;;;;;1.37;1.30;;;16.90;62.80;;;;;;5006294;28;43998;-78
2022/04/05 12:01:16;;;;;;;1.10;1.10;;;16.80;62.80;;;;;;5006416;28;43985;-77
2022/04/05 12:03:46;;;;;;;2.33;1.33;;;16.80;62.90;;;;;;4988349;28;43952;-77
2022/04/05 12:06:14;;;;;;;1.40;1.30;;;16.80;63.00;;;;;;4988651;28;44152;-77
2022/04/05 12:08:44;;;;;;;1.83;1.40;;;16.80;63.60;;;;;;4988178;28;46906;-77
2022/04/05 12:11:12;;;;;;;1.63;1.50;;;16.90;63.50;;;;;;4987521;28;44669;-77
2022/04/05 12:13:40;;;;;;;1.50;1.40;;;17.10;63.30;;;;;;5006192;28;44118;-77
2022/04/05 12:16:08;;;;;;;1.20;1.20;;;17.30;62.50;;;;;;5006382;28;44011;-77
2022/04/05 12:18:36;;;;;;;1.97;1.43;;;17.40;62.00;;;;;;5005729;28;44016;-78
2022/04/05 12:21:05;;;;;;;1.30;1.30;;;17.50;61.80;;;;;;5005898;28;43974;-77
2022/04/05 12:23:34;;;;;;;1.60;1.50;;;17.40;61.50;;;;;;4980684;28;43958;-76
2022/04/05 12:26:10;;;;;;;1.33;1.30;;;17.40;61.60;;;;;;4993680;28;44061;-75
2022/04/05 12:28:41;;;;;;;1.50;1.40;;;17.30;61.60;;;;;;4999517;28;45547;-75
2022/04/05 12:31:15;;;;;;;1.40;1.40;;;17.20;61.80;;;;;;5004789;28;44000;-75
2022/04/05 12:34:00;;;;;;;1.30;1.30;;;17.10;62.00;;;;;;5004482;28;43875;-75
2022/04/05 12:36:46;;;;;;;1.70;1.60;;;17.00;62.20;;;;;;5005323;28;44232;-76
2022/04/05 12:39:19;;;;;;;2.10;1.40;;;17.00;62.50;;;;;;5004570;28;45323;-75
2022/04/05 12:42:01;;;;;;;1.43;1.43;;;16.90;62.60;;;;;;5004501;28;45543;-75
2022/04/05 12:44:32;;;;;;;1.70;1.60;;;16.90;62.70;;;;;;5004669;28;44100;-76
2022/04/05 12:47:10;;;;;;;1.87;1.70;;;16.90;63.50;;;;;;5006784;28;44103;-75
2022/04/05 12:49:41;;;;;;;1.80;1.70;;;17.00;63.60;;;;;;5004400;28;46288;-76
2022/04/05 12:52:17;;;;;;;1.50;1.50;;;17.10;63.20;;;;;;5004295;28;44616;-75
2022/04/05 12:54:49;;;;;;;1.33;1.33;;;17.30;62.80;;;;;;5004577;28;44068;-76
2022/04/05 12:57:32;;;;;;;1.37;1.37;;;17.40;62.30;;;;;;4995960;28;44232;-76
2022/04/05 13:00:15;;;;;;;1.73;1.63;;;17.60;61.80;;;;;;5005977;28;43961;-76
2022/04/05 13:02:44;;;;;;;2.00;1.90;;;17.70;61.50;;;;;;5004467;28;43635;-76
2022/04/05 13:08:10;;;;;;;2.00;1.90;;;18.00;60.80;;;;;;5005099;28;43525;-74